Bartlettsville, Indiana
Current Conditions -  °F | °C
As of 10:31 AM on Wednesday 26 Nov 2014 (Local Time) from KBMG Reporting Station
Overcast Overcast  
Wind Chill: 21°   Ceiling: 1500
Heat Index: 30°   Visibility: 10mi
Dew Point: 23°   Wind: 10mph
Humidity: 75%   Direction: 120°ESE
Pressure: 30.12"   Gusts: NA
Location:  38.8737°N, 86.4563°W
Report Text: KBMG 261531Z 12009KT 10SM OVC015 M01/M05 A3012 RMK AO2 T10111050
Loading
Personal Weather Stations






























Interactive Weather Map New forecast layout! Learn more

10-Day Weather Forecast

Advertisements
Track Severe Weather on mobile